sensor_id;sensor_type;location;lat;lon;timestamp;P1;durP1;ratioP1;P2;durP2;ratioP2
68765;SDS011;55756;45.582;11.484;2023-03-21T00:00:35;47.70;;;33.53;;
68765;SDS011;55756;45.582;11.484;2023-03-21T00:03:02;45.20;;;32.55;;
68765;SDS011;55756;45.582;11.484;2023-03-21T00:05:28;46.65;;;31.98;;
68765;SDS011;55756;45.582;11.484;2023-03-21T00:07:54;42.00;;;32.70;;
68765;SDS011;55756;45.582;11.484;2023-03-21T00:10:20;42.90;;;32.35;;
68765;SDS011;55756;45.582;11.484;2023-03-21T00:12:45;44.08;;;32.55;;
68765;SDS011;55756;45.582;11.484;2023-03-21T00:15:14;47.13;;;33.85;;
68765;SDS011;55756;45.582;11.484;2023-03-21T00:17:42;46.88;;;34.20;;
68765;SDS011;55756;45.582;11.484;2023-03-21T00:20:09;48.05;;;33.75;;
68765;SDS011;55756;45.582;11.484;2023-03-21T00:22:39;47.60;;;35.25;;
68765;SDS011;55756;45.582;11.484;2023-03-21T00:25:06;50.03;;;35.20;;
68765;SDS011;55756;45.582;11.484;2023-03-21T00:27:33;45.45;;;34.90;;
68765;SDS011;55756;45.582;11.484;2023-03-21T00:30:00;47.75;;;34.65;;
68765;SDS011;55756;45.582;11.484;2023-03-21T00:32:26;46.05;;;35.13;;
68765;SDS011;55756;45.582;11.484;2023-03-21T00:34:51;46.53;;;34.90;;
68765;SDS011;55756;45.582;11.484;2023-03-21T00:37:17;45.83;;;34.22;;
68765;SDS011;55756;45.582;11.484;2023-03-21T00:39:43;46.45;;;36.13;;
68765;SDS011;55756;45.582;11.484;2023-03-21T00:42:13;47.40;;;35.10;;
68765;SDS011;55756;45.582;11.484;2023-03-21T00:44:42;48.35;;;34.42;;
68765;SDS011;55756;45.582;11.484;2023-03-21T00:47:11;48.42;;;35.42;;
68765;SDS011;55756;45.582;11.484;2023-03-21T00:49:37;46.08;;;36.17;;
68765;SDS011;55756;45.582;11.484;2023-03-21T00:52:04;51.95;;;37.55;;
68765;SDS011;55756;45.582;11.484;2023-03-21T00:56:59;50.72;;;39.33;;
68765;SDS011;55756;45.582;11.484;2023-03-21T00:59:27;55.78;;;38.30;;
68765;SDS011;55756;45.582;11.484;2023-03-21T01:01:53;51.63;;;38.35;;
68765;SDS011;55756;45.582;11.484;2023-03-21T01:04:19;51.75;;;37.92;;
68765;SDS011;55756;45.582;11.484;2023-03-21T01:06:51;50.28;;;37.53;;
68765;SDS011;55756;45.582;11.484;2023-03-21T01:09:18;56.88;;;38.75;;
68765;SDS011;55756;45.582;11.484;2023-03-21T01:11:46;49.85;;;37.40;;
68765;SDS011;55756;45.582;11.484;2023-03-21T01:14:12;49.13;;;37.40;;
68765;SDS011;55756;45.582;11.484;2023-03-21T01:16:39;52.10;;;37.38;;
68765;SDS011;55756;45.582;11.484;2023-03-21T01:19:06;48.22;;;37.00;;
68765;SDS011;55756;45.582;11.484;2023-03-21T01:21:32;49.40;;;36.88;;
68765;SDS011;55756;45.582;11.484;2023-03-21T01:24:00;50.90;;;37.65;;
68765;SDS011;55756;45.582;11.484;2023-03-21T01:26:26;50.05;;;36.65;;
68765;SDS011;55756;45.582;11.484;2023-03-21T01:28:52;47.45;;;37.13;;
68765;SDS011;55756;45.582;11.484;2023-03-21T01:31:18;47.40;;;36.00;;
68765;SDS011;55756;45.582;11.484;2023-03-21T01:33:44;50.85;;;37.03;;
68765;SDS011;55756;45.582;11.484;2023-03-21T01:36:20;50.22;;;37.85;;
68765;SDS011;55756;45.582;11.484;2023-03-21T01:38:49;48.65;;;37.83;;
68765;SDS011;55756;45.582;11.484;2023-03-21T01:41:35;48.13;;;36.92;;
68765;SDS011;55756;45.582;11.484;2023-03-21T01:44:04;49.80;;;37.00;;
68765;SDS011;55756;45.582;11.484;2023-03-21T01:49:18;46.35;;;35.30;;
68765;SDS011;55756;45.582;11.484;2023-03-21T01:52:04;46.08;;;35.05;;
68765;SDS011;55756;45.582;11.484;2023-03-21T01:54:34;47.17;;;36.05;;
68765;SDS011;55756;45.582;11.484;2023-03-21T01:57:05;44.05;;;35.22;;
68765;SDS011;55756;45.582;11.484;2023-03-21T01:59:36;46.00;;;34.63;;
68765;SDS011;55756;45.582;11.484;2023-03-21T02:02:13;45.55;;;34.50;;
68765;SDS011;55756;45.582;11.484;2023-03-21T02:04:57;45.53;;;35.15;;
68765;SDS011;55756;45.582;11.484;2023-03-21T02:07:32;45.70;;;34.10;;
68765;SDS011;55756;45.582;11.484;2023-03-21T02:10:06;45.53;;;34.15;;
68765;SDS011;55756;45.582;11.484;2023-03-21T02:12:36;43.40;;;33.22;;
68765;SDS011;55756;45.582;11.484;2023-03-21T02:15:04;43.35;;;33.17;;
68765;SDS011;55756;45.582;11.484;2023-03-21T02:17:58;42.22;;;32.53;;
68765;SDS011;55756;45.582;11.484;2023-03-21T02:23:29;44.00;;;33.25;;
68765;SDS011;55756;45.582;11.484;2023-03-21T02:28:40;45.50;;;34.92;;
68765;SDS011;55756;45.582;11.484;2023-03-21T02:39:19;43.90;;;33.83;;
68765;SDS011;55756;45.582;11.484;2023-03-21T02:42:12;41.55;;;32.75;;
68765;SDS011;55756;45.582;11.484;2023-03-21T02:48:02;43.50;;;32.05;;
68765;SDS011;55756;45.582;11.484;2023-03-21T02:50:35;42.00;;;33.08;;
68765;SDS011;55756;45.582;11.484;2023-03-21T02:53:07;44.28;;;34.15;;
68765;SDS011;55756;45.582;11.484;2023-03-21T02:55:36;43.42;;;33.13;;
68765;SDS011;55756;45.582;11.484;2023-03-21T02:58:03;47.92;;;33.72;;
68765;SDS011;55756;45.582;11.484;2023-03-21T03:00:33;42.13;;;32.15;;
68765;SDS011;55756;45.582;11.484;2023-03-21T03:03:02;41.22;;;31.17;;
68765;SDS011;55756;45.582;11.484;2023-03-21T03:05:30;42.78;;;31.35;;
68765;SDS011;55756;45.582;11.484;2023-03-21T03:18:54;41.83;;;29.73;;
68765;SDS011;55756;45.582;11.484;2023-03-21T03:24:14;38.35;;;29.00;;
68765;SDS011;55756;45.582;11.484;2023-03-21T03:29:26;38.08;;;29.08;;
68765;SDS011;55756;45.582;11.484;2023-03-21T03:31:59;37.75;;;28.05;;
68765;SDS011;55756;45.582;11.484;2023-03-21T03:34:32;39.03;;;28.77;;
68765;SDS011;55756;45.582;11.484;2023-03-21T03:37:07;39.40;;;29.13;;
68765;SDS011;55756;45.582;11.484;2023-03-21T03:39:39;39.65;;;30.20;;
68765;SDS011;55756;45.582;11.484;2023-03-21T03:42:16;42.47;;;31.48;;
68765;SDS011;55756;45.582;11.484;2023-03-21T03:44:54;45.00;;;33.40;;
68765;SDS011;55756;45.582;11.484;2023-03-21T03:47:27;45.85;;;33.40;;
68765;SDS011;55756;45.582;11.484;2023-03-21T03:50:25;45.92;;;34.63;;
68765;SDS011;55756;45.582;11.484;2023-03-21T03:53:39;44.40;;;34.42;;
68765;SDS011;55756;45.582;11.484;2023-03-21T03:55:57;44.97;;;33.97;;
68765;SDS011;55756;45.582;11.484;2023-03-21T03:58:24;47.25;;;34.50;;
68765;SDS011;55756;45.582;11.484;2023-03-21T04:00:54;45.95;;;33.20;;
68765;SDS011;55756;45.582;11.484;2023-03-21T04:05:47;43.60;;;32.60;;
68765;SDS011;55756;45.582;11.484;2023-03-21T04:08:14;43.22;;;32.20;;
68765;SDS011;55756;45.582;11.484;2023-03-21T04:10:43;39.72;;;31.10;;
68765;SDS011;55756;45.582;11.484;2023-03-21T04:13:09;43.83;;;31.45;;
68765;SDS011;55756;45.582;11.484;2023-03-21T04:15:53;42.17;;;30.55;;
68765;SDS011;55756;45.582;11.484;2023-03-21T04:18:20;37.95;;;28.67;;
68765;SDS011;55756;45.582;11.484;2023-03-21T04:20:48;36.78;;;28.88;;
68765;SDS011;55756;45.582;11.484;2023-03-21T04:23:15;39.45;;;30.00;;
68765;SDS011;55756;45.582;11.484;2023-03-21T04:25:44;41.17;;;30.65;;
68765;SDS011;55756;45.582;11.484;2023-03-21T04:28:10;43.10;;;32.00;;
68765;SDS011;55756;45.582;11.484;2023-03-21T04:30:50;48.08;;;34.67;;
68765;SDS011;55756;45.582;11.484;2023-03-21T04:33:19;45.80;;;34.13;;
68765;SDS011;55756;45.582;11.484;2023-03-21T04:35:51;48.65;;;34.53;;
68765;SDS011;55756;45.582;11.484;2023-03-21T04:38:22;45.22;;;34.40;;
68765;SDS011;55756;45.582;11.484;2023-03-21T04:40:48;48.15;;;35.80;;
68765;SDS011;55756;45.582;11.484;2023-03-21T04:43:14;46.15;;;34.63;;
68765;SDS011;55756;45.582;11.484;2023-03-21T04:45:40;44.45;;;33.42;;
68765;SDS011;55756;45.582;11.484;2023-03-21T04:48:07;46.88;;;33.50;;
68765;SDS011;55756;45.582;11.484;2023-03-21T04:50:32;44.45;;;32.97;;
68765;SDS011;55756;45.582;11.484;2023-03-21T04:52:58;43.72;;;33.50;;
68765;SDS011;55756;45.582;11.484;2023-03-21T04:55:25;45.72;;;33.67;;
68765;SDS011;55756;45.582;11.484;2023-03-21T04:57:53;46.63;;;34.05;;
68765;SDS011;55756;45.582;11.484;2023-03-21T05:00:20;44.85;;;33.58;;
68765;SDS011;55756;45.582;11.484;2023-03-21T05:02:47;44.70;;;33.67;;
68765;SDS011;55756;45.582;11.484;2023-03-21T05:05:16;47.47;;;33.50;;
68765;SDS011;55756;45.582;11.484;2023-03-21T05:07:43;46.13;;;34.20;;
68765;SDS011;55756;45.582;11.484;2023-03-21T05:10:09;45.85;;;33.75;;
68765;SDS011;55756;45.582;11.484;2023-03-21T05:12:38;43.47;;;33.78;;
68765;SDS011;55756;45.582;11.484;2023-03-21T05:15:04;47.30;;;33.88;;
68765;SDS011;55756;45.582;11.484;2023-03-21T05:17:31;43.40;;;33.40;;
68765;SDS011;55756;45.582;11.484;2023-03-21T05:19:57;43.15;;;32.83;;
68765;SDS011;55756;45.582;11.484;2023-03-21T05:22:23;43.35;;;32.97;;
68765;SDS011;55756;45.582;11.484;2023-03-21T05:24:52;43.15;;;32.33;;
68765;SDS011;55756;45.582;11.484;2023-03-21T05:27:38;44.10;;;33.22;;
68765;SDS011;55756;45.582;11.484;2023-03-21T05:30:13;43.03;;;30.42;;
68765;SDS011;55756;45.582;11.484;2023-03-21T05:32:42;41.55;;;32.03;;
68765;SDS011;55756;45.582;11.484;2023-03-21T05:35:10;46.30;;;33.08;;
68765;SDS011;55756;45.582;11.484;2023-03-21T05:37:36;111.75;;;67.82;;
68765;SDS011;55756;45.582;11.484;2023-03-21T05:40:04;102.32;;;64.10;;
68765;SDS011;55756;45.582;11.484;2023-03-21T05:42:32;86.30;;;55.75;;
68765;SDS011;55756;45.582;11.484;2023-03-21T05:45:03;80.47;;;53.15;;
68765;SDS011;55756;45.582;11.484;2023-03-21T05:47:32;95.10;;;59.53;;
68765;SDS011;55756;45.582;11.484;2023-03-21T05:49:59;130.40;;;79.35;;
68765;SDS011;55756;45.582;11.484;2023-03-21T05:52:25;145.48;;;88.25;;
68765;SDS011;55756;45.582;11.484;2023-03-21T05:54:52;94.20;;;57.38;;
68765;SDS011;55756;45.582;11.484;2023-03-21T05:57:21;50.83;;;36.25;;
68765;SDS011;55756;45.582;11.484;2023-03-21T06:02:27;36.95;;;26.20;;
68765;SDS011;55756;45.582;11.484;2023-03-21T06:04:56;30.52;;;23.02;;
68765;SDS011;55756;45.582;11.484;2023-03-21T06:07:39;31.33;;;22.00;;
68765;SDS011;55756;45.582;11.484;2023-03-21T06:10:06;31.13;;;22.73;;
68765;SDS011;55756;45.582;11.484;2023-03-21T06:12:33;37.10;;;23.75;;
68765;SDS011;55756;45.582;11.484;2023-03-21T06:15:19;35.95;;;25.05;;
68765;SDS011;55756;45.582;11.484;2023-03-21T06:17:52;39.70;;;27.88;;
68765;SDS011;55756;45.582;11.484;2023-03-21T06:20:19;38.90;;;27.52;;
68765;SDS011;55756;45.582;11.484;2023-03-21T06:22:49;42.03;;;29.25;;
68765;SDS011;55756;45.582;11.484;2023-03-21T06:25:15;39.55;;;27.10;;
68765;SDS011;55756;45.582;11.484;2023-03-21T06:27:41;41.25;;;28.17;;
68765;SDS011;55756;45.582;11.484;2023-03-21T06:30:08;44.03;;;29.27;;
68765;SDS011;55756;45.582;11.484;2023-03-21T06:32:43;53.25;;;32.08;;
68765;SDS011;55756;45.582;11.484;2023-03-21T06:35:15;45.05;;;31.40;;
68765;SDS011;55756;45.582;11.484;2023-03-21T06:37:41;43.10;;;29.95;;
68765;SDS011;55756;45.582;11.484;2023-03-21T06:40:10;38.33;;;27.10;;
68765;SDS011;55756;45.582;11.484;2023-03-21T06:42:36;39.08;;;26.25;;
68765;SDS011;55756;45.582;11.484;2023-03-21T06:45:07;35.95;;;25.63;;
68765;SDS011;55756;45.582;11.484;2023-03-21T06:47:33;37.40;;;25.60;;
68765;SDS011;55756;45.582;11.484;2023-03-21T06:50:02;40.75;;;26.73;;
68765;SDS011;55756;45.582;11.484;2023-03-21T06:52:32;40.85;;;26.75;;
68765;SDS011;55756;45.582;11.484;2023-03-21T06:54:57;38.80;;;26.20;;
68765;SDS011;55756;45.582;11.484;2023-03-21T06:57:24;40.95;;;26.98;;
68765;SDS011;55756;45.582;11.484;2023-03-21T06:59:50;38.53;;;27.30;;
68765;SDS011;55756;45.582;11.484;2023-03-21T07:02:22;39.72;;;27.52;;
68765;SDS011;55756;45.582;11.484;2023-03-21T07:05:02;40.17;;;28.00;;
68765;SDS011;55756;45.582;11.484;2023-03-21T07:07:29;39.22;;;28.40;;
68765;SDS011;55756;45.582;11.484;2023-03-21T07:09:55;39.53;;;28.35;;
68765;SDS011;55756;45.582;11.484;2023-03-21T07:12:22;43.03;;;30.98;;
68765;SDS011;55756;45.582;11.484;2023-03-21T07:15:12;46.75;;;32.47;;
68765;SDS011;55756;45.582;11.484;2023-03-21T07:17:40;43.08;;;32.60;;
68765;SDS011;55756;45.582;11.484;2023-03-21T07:20:06;45.55;;;34.40;;
68765;SDS011;55756;45.582;11.484;2023-03-21T07:22:33;45.95;;;34.78;;
68765;SDS011;55756;45.582;11.484;2023-03-21T07:24:59;49.85;;;34.90;;
68765;SDS011;55756;45.582;11.484;2023-03-21T07:27:25;46.60;;;34.47;;
68765;SDS011;55756;45.582;11.484;2023-03-21T07:29:51;46.85;;;34.60;;
68765;SDS011;55756;45.582;11.484;2023-03-21T07:32:16;46.75;;;34.67;;
68765;SDS011;55756;45.582;11.484;2023-03-21T07:34:42;47.72;;;34.55;;
68765;SDS011;55756;45.582;11.484;2023-03-21T07:37:08;45.92;;;34.42;;
68765;SDS011;55756;45.582;11.484;2023-03-21T07:39:34;45.22;;;34.38;;
68765;SDS011;55756;45.582;11.484;2023-03-21T07:42:00;45.47;;;33.45;;
68765;SDS011;55756;45.582;11.484;2023-03-21T07:44:35;49.42;;;32.63;;
68765;SDS011;55756;45.582;11.484;2023-03-21T07:47:02;42.05;;;31.70;;
68765;SDS011;55756;45.582;11.484;2023-03-21T07:49:30;42.75;;;31.40;;
68765;SDS011;55756;45.582;11.484;2023-03-21T07:51:55;43.78;;;32.80;;
68765;SDS011;55756;45.582;11.484;2023-03-21T07:54:21;43.05;;;31.33;;
68765;SDS011;55756;45.582;11.484;2023-03-21T07:56:47;44.33;;;31.75;;
68765;SDS011;55756;45.582;11.484;2023-03-21T07:59:13;41.45;;;30.85;;
68765;SDS011;55756;45.582;11.484;2023-03-21T08:01:39;45.67;;;31.52;;
68765;SDS011;55756;45.582;11.484;2023-03-21T08:04:05;43.30;;;30.33;;
68765;SDS011;55756;45.582;11.484;2023-03-21T08:06:30;46.35;;;31.38;;
68765;SDS011;55756;45.582;11.484;2023-03-21T08:08:59;42.30;;;29.77;;
68765;SDS011;55756;45.582;11.484;2023-03-21T08:11:25;38.20;;;29.08;;
68765;SDS011;55756;45.582;11.484;2023-03-21T08:13:55;36.08;;;27.50;;
68765;SDS011;55756;45.582;11.484;2023-03-21T08:16:21;35.80;;;26.13;;
68765;SDS011;55756;45.582;11.484;2023-03-21T08:18:47;32.33;;;24.52;;
68765;SDS011;55756;45.582;11.484;2023-03-21T08:21:13;33.45;;;24.15;;
68765;SDS011;55756;45.582;11.484;2023-03-21T08:23:38;33.47;;;23.75;;
68765;SDS011;55756;45.582;11.484;2023-03-21T08:26:04;33.85;;;23.48;;
68765;SDS011;55756;45.582;11.484;2023-03-21T08:28:30;32.17;;;23.02;;
68765;SDS011;55756;45.582;11.484;2023-03-21T08:30:56;31.58;;;21.95;;
68765;SDS011;55756;45.582;11.484;2023-03-21T08:33:22;30.83;;;22.77;;
68765;SDS011;55756;45.582;11.484;2023-03-21T08:35:47;32.33;;;22.92;;
68765;SDS011;55756;45.582;11.484;2023-03-21T08:38:13;29.30;;;22.40;;
68765;SDS011;55756;45.582;11.484;2023-03-21T08:40:39;30.52;;;22.15;;
68765;SDS011;55756;45.582;11.484;2023-03-21T08:43:05;32.17;;;22.60;;
68765;SDS011;55756;45.582;11.484;2023-03-21T08:45:31;35.60;;;22.08;;
68765;SDS011;55756;45.582;11.484;2023-03-21T08:47:57;33.28;;;22.60;;
68765;SDS011;55756;45.582;11.484;2023-03-21T08:50:23;32.17;;;21.10;;
68765;SDS011;55756;45.582;11.484;2023-03-21T08:52:53;30.92;;;22.27;;
68765;SDS011;55756;45.582;11.484;2023-03-21T08:55:19;30.92;;;21.88;;
68765;SDS011;55756;45.582;11.484;2023-03-21T08:57:45;34.30;;;22.67;;
68765;SDS011;55756;45.582;11.484;2023-03-21T09:00:12;34.40;;;22.23;;
68765;SDS011;55756;45.582;11.484;2023-03-21T09:02:41;29.13;;;21.75;;
68765;SDS011;55756;45.582;11.484;2023-03-21T09:05:09;32.13;;;22.90;;
68765;SDS011;55756;45.582;11.484;2023-03-21T09:07:36;29.38;;;21.80;;
68765;SDS011;55756;45.582;11.484;2023-03-21T09:10:08;30.30;;;21.95;;
68765;SDS011;55756;45.582;11.484;2023-03-21T09:12:40;31.02;;;22.77;;
68765;SDS011;55756;45.582;11.484;2023-03-21T09:15:06;32.80;;;23.08;;
68765;SDS011;55756;45.582;11.484;2023-03-21T09:17:33;31.48;;;22.60;;
68765;SDS011;55756;45.582;11.484;2023-03-21T09:20:00;35.03;;;23.35;;
68765;SDS011;55756;45.582;11.484;2023-03-21T09:22:36;31.92;;;22.95;;
68765;SDS011;55756;45.582;11.484;2023-03-21T09:25:03;31.88;;;23.20;;
68765;SDS011;55756;45.582;11.484;2023-03-21T09:27:33;33.92;;;22.85;;
68765;SDS011;55756;45.582;11.484;2023-03-21T09:29:59;33.95;;;23.23;;
68765;SDS011;55756;45.582;11.484;2023-03-21T09:32:25;35.00;;;23.83;;
68765;SDS011;55756;45.582;11.484;2023-03-21T09:34:52;32.92;;;23.23;;
68765;SDS011;55756;45.582;11.484;2023-03-21T09:37:19;34.58;;;24.40;;
68765;SDS011;55756;45.582;11.484;2023-03-21T09:39:45;34.38;;;23.48;;
68765;SDS011;55756;45.582;11.484;2023-03-21T09:42:19;34.13;;;24.42;;
68765;SDS011;55756;45.582;11.484;2023-03-21T09:45:02;33.72;;;24.02;;
68765;SDS011;55756;45.582;11.484;2023-03-21T09:47:54;35.30;;;24.30;;
68765;SDS011;55756;45.582;11.484;2023-03-21T09:50:25;35.78;;;23.63;;
68765;SDS011;55756;45.582;11.484;2023-03-21T09:53:03;32.20;;;23.45;;
68765;SDS011;55756;45.582;11.484;2023-03-21T09:55:31;29.23;;;21.90;;
68765;SDS011;55756;45.582;11.484;2023-03-21T10:00:44;31.83;;;22.73;;
68765;SDS011;55756;45.582;11.484;2023-03-21T10:03:23;32.72;;;23.73;;
68765;SDS011;55756;45.582;11.484;2023-03-21T10:05:53;29.75;;;22.70;;
68765;SDS011;55756;45.582;11.484;2023-03-21T10:08:29;32.00;;;21.85;;
68765;SDS011;55756;45.582;11.484;2023-03-21T10:11:16;29.88;;;22.20;;
68765;SDS011;55756;45.582;11.484;2023-03-21T10:13:48;33.03;;;22.52;;
68765;SDS011;55756;45.582;11.484;2023-03-21T10:16:27;29.95;;;21.83;;
68765;SDS011;55756;45.582;11.484;2023-03-21T10:18:56;32.58;;;21.90;;
68765;SDS011;55756;45.582;11.484;2023-03-21T10:21:27;30.17;;;21.58;;
68765;SDS011;55756;45.582;11.484;2023-03-21T10:23:54;32.05;;;22.58;;
68765;SDS011;55756;45.582;11.484;2023-03-21T10:26:23;29.77;;;22.27;;
68765;SDS011;55756;45.582;11.484;2023-03-21T10:28:52;29.63;;;22.13;;
68765;SDS011;55756;45.582;11.484;2023-03-21T10:31:22;31.92;;;23.00;;
68765;SDS011;55756;45.582;11.484;2023-03-21T10:33:50;29.17;;;21.75;;
68765;SDS011;55756;45.582;11.484;2023-03-21T10:36:22;31.02;;;21.40;;
68765;SDS011;55756;45.582;11.484;2023-03-21T10:39:01;29.73;;;21.10;;
68765;SDS011;55756;45.582;11.484;2023-03-21T10:41:31;28.95;;;19.70;;
68765;SDS011;55756;45.582;11.484;2023-03-21T10:44:11;30.13;;;20.08;;
68765;SDS011;55756;45.582;11.484;2023-03-21T10:47:03;32.13;;;20.77;;
68765;SDS011;55756;45.582;11.484;2023-03-21T10:49:29;26.80;;;20.23;;
68765;SDS011;55756;45.582;11.484;2023-03-21T10:51:56;29.40;;;19.77;;
68765;SDS011;55756;45.582;11.484;2023-03-21T10:54:30;30.47;;;20.40;;
68765;SDS011;55756;45.582;11.484;2023-03-21T10:59:35;28.35;;;20.08;;
68765;SDS011;55756;45.582;11.484;2023-03-21T11:02:20;29.20;;;20.58;;
68765;SDS011;55756;45.582;11.484;2023-03-21T11:04:51;30.45;;;20.48;;
68765;SDS011;55756;45.582;11.484;2023-03-21T11:07:18;32.78;;;20.35;;
68765;SDS011;55756;45.582;11.484;2023-03-21T11:09:55;28.42;;;19.63;;
68765;SDS011;55756;45.582;11.484;2023-03-21T11:12:31;29.30;;;19.17;;
68765;SDS011;55756;45.582;11.484;2023-03-21T11:18:19;27.25;;;19.33;;
68765;SDS011;55756;45.582;11.484;2023-03-21T11:20:48;28.48;;;18.55;;
68765;SDS011;55756;45.582;11.484;2023-03-21T11:23:16;27.60;;;19.17;;
68765;SDS011;55756;45.582;11.484;2023-03-21T11:25:42;28.63;;;19.58;;
68765;SDS011;55756;45.582;11.484;2023-03-21T11:28:11;27.23;;;19.77;;
68765;SDS011;55756;45.582;11.484;2023-03-21T11:30:49;25.73;;;19.33;;
68765;SDS011;55756;45.582;11.484;2023-03-21T11:35:44;24.35;;;16.38;;
68765;SDS011;55756;45.582;11.484;2023-03-21T11:38:43;22.17;;;13.15;;
68765;SDS011;55756;45.582;11.484;2023-03-21T11:41:24;16.33;;;10.75;;
68765;SDS011;55756;45.582;11.484;2023-03-21T11:43:54;15.55;;;10.20;;
68765;SDS011;55756;45.582;11.484;2023-03-21T11:46:23;14.50;;;10.13;;
68765;SDS011;55756;45.582;11.484;2023-03-21T11:48:55;20.50;;;11.57;;
68765;SDS011;55756;45.582;11.484;2023-03-21T11:51:30;18.85;;;11.82;;
68765;SDS011;55756;45.582;11.484;2023-03-21T11:56:50;17.08;;;11.70;;
68765;SDS011;55756;45.582;11.484;2023-03-21T12:02:09;19.42;;;12.18;;
68765;SDS011;55756;45.582;11.484;2023-03-21T12:13:04;17.85;;;11.27;;
68765;SDS011;55756;45.582;11.484;2023-03-21T12:18:15;18.85;;;11.43;;
68765;SDS011;55756;45.582;11.484;2023-03-21T12:21:06;18.58;;;12.57;;
68765;SDS011;55756;45.582;11.484;2023-03-21T12:23:49;20.42;;;12.02;;
68765;SDS011;55756;45.582;11.484;2023-03-21T12:27:14;17.00;;;10.73;;
68765;SDS011;55756;45.582;11.484;2023-03-21T12:46:46;17.95;;;11.82;;
68765;SDS011;55756;45.582;11.484;2023-03-21T12:49:24;21.13;;;13.55;;
68765;SDS011;55756;45.582;11.484;2023-03-21T12:52:14;20.98;;;14.00;;
68765;SDS011;55756;45.582;11.484;2023-03-21T12:54:59;19.98;;;13.25;;
68765;SDS011;55756;45.582;11.484;2023-03-21T12:57:41;20.35;;;12.60;;
68765;SDS011;55756;45.582;11.484;2023-03-21T13:00:20;18.70;;;12.57;;
68765;SDS011;55756;45.582;11.484;2023-03-21T13:07:55;21.95;;;15.23;;
68765;SDS011;55756;45.582;11.484;2023-03-21T13:10:36;20.95;;;14.10;;
68765;SDS011;55756;45.582;11.484;2023-03-21T13:13:16;20.50;;;14.13;;
68765;SDS011;55756;45.582;11.484;2023-03-21T13:27:03;26.00;;;17.77;;
68765;SDS011;55756;45.582;11.484;2023-03-21T13:32:15;24.33;;;17.67;;
68765;SDS011;55756;45.582;11.484;2023-03-21T13:34:53;21.13;;;16.40;;
68765;SDS011;55756;45.582;11.484;2023-03-21T13:37:58;26.17;;;18.20;;
68765;SDS011;55756;45.582;11.484;2023-03-21T13:40:46;28.27;;;18.23;;
68765;SDS011;55756;45.582;11.484;2023-03-21T13:51:41;24.67;;;15.88;;
68765;SDS011;55756;45.582;11.484;2023-03-21T13:59:18;25.95;;;18.40;;
68765;SDS011;55756;45.582;11.484;2023-03-21T14:04:37;27.73;;;19.42;;
68765;SDS011;55756;45.582;11.484;2023-03-21T14:07:22;30.08;;;20.60;;
68765;SDS011;55756;45.582;11.484;2023-03-21T14:09:51;27.60;;;20.08;;
68765;SDS011;55756;45.582;11.484;2023-03-21T14:12:21;29.75;;;18.95;;
68765;SDS011;55756;45.582;11.484;2023-03-21T14:14:51;25.65;;;18.58;;
68765;SDS011;55756;45.582;11.484;2023-03-21T14:17:29;26.67;;;20.10;;
68765;SDS011;55756;45.582;11.484;2023-03-21T14:22:40;25.67;;;18.33;;
68765;SDS011;55756;45.582;11.484;2023-03-21T14:25:09;24.05;;;17.00;;
68765;SDS011;55756;45.582;11.484;2023-03-21T14:27:37;27.60;;;17.20;;
68765;SDS011;55756;45.582;11.484;2023-03-21T14:30:18;27.77;;;18.52;;
68765;SDS011;55756;45.582;11.484;2023-03-21T14:32:47;24.88;;;18.02;;
68765;SDS011;55756;45.582;11.484;2023-03-21T14:35:13;27.42;;;19.50;;
68765;SDS011;55756;45.582;11.484;2023-03-21T14:37:40;27.00;;;19.88;;
68765;SDS011;55756;45.582;11.484;2023-03-21T14:40:28;29.42;;;20.80;;
68765;SDS011;55756;45.582;11.484;2023-03-21T14:42:54;29.95;;;20.42;;
68765;SDS011;55756;45.582;11.484;2023-03-21T14:45:27;29.90;;;19.95;;
68765;SDS011;55756;45.582;11.484;2023-03-21T14:53:03;30.27;;;21.30;;
68765;SDS011;55756;45.582;11.484;2023-03-21T14:55:30;30.73;;;21.27;;
68765;SDS011;55756;45.582;11.484;2023-03-21T14:57:56;28.17;;;20.42;;
68765;SDS011;55756;45.582;11.484;2023-03-21T15:00:24;31.15;;;20.33;;
68765;SDS011;55756;45.582;11.484;2023-03-21T15:02:53;30.70;;;20.80;;
68765;SDS011;55756;45.582;11.484;2023-03-21T15:05:33;34.53;;;21.23;;
68765;SDS011;55756;45.582;11.484;2023-03-21T15:08:08;30.70;;;21.48;;
68765;SDS011;55756;45.582;11.484;2023-03-21T15:10:41;29.55;;;20.95;;
68765;SDS011;55756;45.582;11.484;2023-03-21T15:13:27;28.20;;;21.10;;
68765;SDS011;55756;45.582;11.484;2023-03-21T15:16:20;28.85;;;21.75;;
68765;SDS011;55756;45.582;11.484;2023-03-21T15:18:46;30.58;;;23.38;;
68765;SDS011;55756;45.582;11.484;2023-03-21T15:21:15;32.78;;;23.60;;
68765;SDS011;55756;45.582;11.484;2023-03-21T15:23:52;29.55;;;23.58;;
68765;SDS011;55756;45.582;11.484;2023-03-21T15:26:27;29.23;;;22.73;;
68765;SDS011;55756;45.582;11.484;2023-03-21T15:28:56;33.33;;;23.08;;
68765;SDS011;55756;45.582;11.484;2023-03-21T15:31:25;32.50;;;23.73;;
68765;SDS011;55756;45.582;11.484;2023-03-21T15:33:54;31.63;;;22.70;;
68765;SDS011;55756;45.582;11.484;2023-03-21T15:36:21;31.75;;;23.02;;
68765;SDS011;55756;45.582;11.484;2023-03-21T15:38:50;34.30;;;23.35;;
68765;SDS011;55756;45.582;11.484;2023-03-21T15:46:13;30.75;;;24.27;;
68765;SDS011;55756;45.582;11.484;2023-03-21T15:48:40;35.47;;;24.50;;
68765;SDS011;55756;45.582;11.484;2023-03-21T15:51:06;36.55;;;24.90;;
68765;SDS011;55756;45.582;11.484;2023-03-21T15:53:43;36.80;;;25.20;;
68765;SDS011;55756;45.582;11.484;2023-03-21T15:56:09;34.85;;;25.27;;
68765;SDS011;55756;45.582;11.484;2023-03-21T15:58:41;32.47;;;24.23;;
68765;SDS011;55756;45.582;11.484;2023-03-21T16:01:16;32.97;;;24.10;;
68765;SDS011;55756;45.582;11.484;2023-03-21T16:03:45;32.92;;;24.13;;
68765;SDS011;55756;45.582;11.484;2023-03-21T16:06:19;33.40;;;25.23;;
68765;SDS011;55756;45.582;11.484;2023-03-21T16:08:47;32.50;;;24.00;;
68765;SDS011;55756;45.582;11.484;2023-03-21T16:13:40;33.28;;;24.63;;
68765;SDS011;55756;45.582;11.484;2023-03-21T16:16:08;32.20;;;24.33;;
68765;SDS011;55756;45.582;11.484;2023-03-21T16:18:44;31.08;;;24.48;;
68765;SDS011;55756;45.582;11.484;2023-03-21T16:21:11;32.58;;;23.67;;
68765;SDS011;55756;45.582;11.484;2023-03-21T16:23:37;33.88;;;23.75;;
68765;SDS011;55756;45.582;11.484;2023-03-21T16:26:03;34.15;;;24.98;;
68765;SDS011;55756;45.582;11.484;2023-03-21T16:28:29;42.60;;;32.38;;
68765;SDS011;55756;45.582;11.484;2023-03-21T16:30:55;39.88;;;28.55;;
68765;SDS011;55756;45.582;11.484;2023-03-21T16:33:24;38.67;;;25.40;;
68765;SDS011;55756;45.582;11.484;2023-03-21T16:35:50;32.65;;;23.65;;
68765;SDS011;55756;45.582;11.484;2023-03-21T16:38:16;31.42;;;23.30;;
68765;SDS011;55756;45.582;11.484;2023-03-21T16:40:42;31.48;;;22.83;;
68765;SDS011;55756;45.582;11.484;2023-03-21T16:43:08;32.53;;;23.13;;
68765;SDS011;55756;45.582;11.484;2023-03-21T16:45:35;32.55;;;23.45;;
68765;SDS011;55756;45.582;11.484;2023-03-21T16:48:01;31.48;;;22.20;;